Time;durP1;ratioP1;P1;durP2;ratioP2;P2;SDS_P1;SDS_P2;PMS_P1;PMS_P2;Temp;Humidity;BMP_temperature;BMP_pressure;BME280_temperature;BME280_humidity;BME280_pressure;Samples;Min_cycle;Max_cycle;Signal;HPM_P1;HPM_P2
2021/07/10 00:01:27;;;;;;;5.95;4.38;;;;;;;14.25;50.19;95960.88;4994795;28;20085;-82
2021/07/10 00:03:52;;;;;;;6.68;4.45;;;;;;;14.29;49.97;95959.47;5012276;28;20102;-82
2021/07/10 00:06:17;;;;;;;5.82;4.43;;;;;;;14.34;49.67;95957.03;5012005;28;20466;-82
2021/07/10 00:08:43;;;;;;;5.97;4.95;;;;;;;14.33;49.92;95952.69;4981795;28;20083;-82
2021/07/10 00:11:08;;;;;;;8.20;5.70;;;;;;;14.40;49.81;95948.22;5009741;28;20102;-82
2021/07/10 00:13:34;;;;;;;12.70;9.77;;;;;;;14.56;51.22;95948.97;5011154;28;20086;-82
2021/07/10 00:16:00;;;;;;;14.57;10.73;;;;;;;14.70;51.11;95952.56;5010690;28;20118;-82
2021/07/10 00:18:25;;;;;;;12.48;9.95;;;;;;;14.58;51.42;95939.69;4980363;28;20098;-82
2021/07/10 00:20:50;;;;;;;12.70;9.77;;;;;;;14.52;51.48;95942.34;5011282;28;20179;-82
2021/07/10 00:23:16;;;;;;;10.23;8.93;;;;;;;14.59;51.05;95933.31;5009837;28;20110;-82
2021/07/10 00:25:42;;;;;;;16.27;11.27;;;;;;;14.64;50.86;95932.72;4993537;28;20082;-82
2021/07/10 00:28:10;;;;;;;9.30;7.45;;;;;;;14.67;50.25;95935.03;4993239;28;20105;-82
2021/07/10 00:30:35;;;;;;;9.18;7.05;;;;;;;14.58;50.18;95926.31;4990796;28;20249;-82
2021/07/10 00:33:02;;;;;;;22.38;13.57;;;;;;;14.65;49.92;95925.53;5005741;28;20169;-82
2021/07/10 00:35:28;;;;;;;13.85;9.05;;;;;;;14.61;49.86;95919.72;4994360;28;20113;-82
2021/07/10 00:37:53;;;;;;;8.90;7.03;;;;;;;14.58;49.91;95915.59;5010523;28;20078;-82
2021/07/10 00:40:18;;;;;;;10.43;7.30;;;;;;;14.56;49.89;95914.13;5001880;28;20094;-82
2021/07/10 00:42:45;;;;;;;9.43;8.10;;;;;;;14.52;49.74;95910.19;5008838;28;20164;-82
2021/07/10 00:45:11;;;;;;;11.10;7.93;;;;;;;14.45;49.94;95910.97;5026249;28;20078;-82
2021/07/10 00:47:36;;;;;;;8.65;6.32;;;;;;;14.39;49.93;95906.41;4993042;28;20113;-82
2021/07/10 00:50:09;;;;;;;7.70;5.75;;;;;;;14.33;49.67;95904.50;4993195;28;20482;-82
2021/07/10 00:52:34;;;;;;;6.80;5.55;;;;;;;14.28;49.80;95896.22;5011063;28;20082;-83
2021/07/10 00:54:59;;;;;;;8.73;5.40;;;;;;;14.23;49.05;95888.78;5010368;28;20456;-83
2021/07/10 00:57:25;;;;;;;10.77;5.85;;;;;;;14.21;49.59;95890.81;4961700;28;20082;-82
2021/07/10 00:59:50;;;;;;;7.38;5.85;;;;;;;14.16;49.78;95882.53;4993080;28;20109;-82
2021/07/10 01:02:16;;;;;;;7.07;5.75;;;;;;;14.12;49.79;95886.63;4993637;28;20109;-82
2021/07/10 01:04:41;;;;;;;7.07;5.10;;;;;;;14.09;49.56;95882.50;4985951;28;20142;-82
2021/07/10 01:07:06;;;;;;;8.32;5.00;;;;;;;14.06;49.63;95882.88;4987004;28;20098;-83
2021/07/10 01:09:32;;;;;;;7.88;5.20;;;;;;;14.00;49.30;95883.66;5008301;28;20094;-82
2021/07/10 01:11:57;;;;;;;7.82;5.57;;;;;;;13.94;49.44;95886.06;5008823;28;20106;-82
2021/07/10 01:14:23;;;;;;;6.90;5.32;;;;;;;13.91;49.75;95882.97;4996277;28;20756;-82
2021/07/10 01:16:48;;;;;;;6.47;5.40;;;;;;;13.87;49.88;95889.69;4994236;28;20090;-82
2021/07/10 01:19:27;;;;;;;7.22;6.13;;;;;;;13.79;50.13;95877.25;4996676;28;20109;-82
2021/07/10 01:21:56;;;;;;;7.15;5.78;;;;;;;13.82;50.01;95877.72;5009484;28;20109;-82
2021/07/10 01:24:22;;;;;;;8.00;6.90;;;;;;;13.82;50.84;95877.72;5000491;28;20136;-83
2021/07/10 01:26:47;;;;;;;9.73;7.50;;;;;;;13.78;51.17;95883.66;4988304;28;20577;-83
2021/07/10 01:29:13;;;;;;;8.05;6.47;;;;;;;13.76;51.15;95872.28;4993404;28;20180;-83
2021/07/10 01:31:38;;;;;;;8.75;6.63;;;;;;;13.76;50.82;95866.94;4997736;28;20098;-83
2021/07/10 01:34:04;;;;;;;9.02;6.40;;;;;;;13.74;50.65;95869.84;4967476;28;20105;-83
2021/07/10 01:36:29;;;;;;;7.50;6.18;;;;;;;13.70;50.84;95869.38;4986749;28;20090;-83
2021/07/10 01:38:55;;;;;;;11.80;6.40;;;;;;;13.65;50.57;95868.28;4994330;28;20103;-83
2021/07/10 01:41:20;;;;;;;8.50;5.90;;;;;;;13.60;50.29;95868.03;4988057;28;20098;-82
2021/07/10 01:43:46;;;;;;;7.82;5.93;;;;;;;13.53;50.40;95859.97;4992878;28;20487;-83
2021/07/10 01:46:11;;;;;;;7.18;5.88;;;;;;;13.43;50.50;95853.06;4983109;28;20595;-82
2021/07/10 01:48:36;;;;;;;7.10;5.75;;;;;;;13.38;50.79;95850.16;5012444;28;20075;-82
2021/07/10 01:51:02;;;;;;;7.43;5.82;;;;;;;13.32;50.90;95842.88;4995807;28;20121;-82
2021/07/10 01:53:27;;;;;;;7.30;6.00;;;;;;;13.25;50.86;95847.31;5013405;28;20087;-83
2021/07/10 01:55:53;;;;;;;7.43;5.50;;;;;;;13.17;51.38;95845.59;5013059;28;20132;-82
2021/07/10 01:58:18;;;;;;;6.68;5.15;;;;;;;13.09;51.06;95851.06;4988207;28;20177;-82
2021/07/10 02:00:44;;;;;;;6.68;5.28;;;;;;;12.98;51.15;95857.72;4996337;28;20120;-82
2021/07/10 02:03:11;;;;;;;7.43;4.80;;;;;;;12.88;51.42;95857.97;4980450;28;20168;-82
2021/07/10 02:05:36;;;;;;;8.57;5.53;;;;;;;12.85;51.04;95856.50;4979688;28;20478;-82
2021/07/10 02:08:02;;;;;;;9.65;5.57;;;;;;;12.85;51.13;95855.69;5011543;28;20137;-82
2021/07/10 02:10:29;;;;;;;6.22;5.63;;;;;;;12.81;51.95;95863.25;4993624;28;20478;-82
2021/07/10 02:12:58;;;;;;;7.70;5.72;;;;;;;12.70;53.03;95858.38;4997099;28;20101;-82
2021/07/10 02:15:24;;;;;;;6.88;5.63;;;;;;;12.62;53.88;95857.44;4996011;28;20141;-82
2021/07/10 02:17:50;;;;;;;10.65;5.53;;;;;;;12.61;54.17;95852.31;4995405;28;20470;-82
2021/07/10 02:20:18;;;;;;;7.32;6.35;;;;;;;12.56;53.74;95847.53;5013390;28;20074;-82
2021/07/10 02:22:44;;;;;;;7.60;5.97;;;;;;;12.64;53.50;95857.25;4989173;28;20142;-82
2021/07/10 02:25:10;;;;;;;9.38;6.78;;;;;;;12.63;52.24;95853.78;4991218;28;20446;-83
2021/07/10 02:27:36;;;;;;;7.38;5.97;;;;;;;12.68;52.92;95855.88;4996571;28;20094;-83
2021/07/10 02:30:10;;;;;;;7.60;5.45;;;;;;;12.69;52.50;95841.53;4993109;28;20153;-83
2021/07/10 02:32:35;;;;;;;8.45;5.35;;;;;;;12.72;52.22;95841.13;4989069;28;20089;-83
2021/07/10 02:35:01;;;;;;;6.80;5.38;;;;;;;12.74;52.00;95841.78;5011382;28;20102;-83
2021/07/10 02:37:28;;;;;;;6.15;4.90;;;;;;;12.74;51.35;95840.94;5014453;28;20490;-83
2021/07/10 02:39:53;;;;;;;5.55;4.78;;;;;;;12.69;51.37;95838.03;5003513;28;20109;-83
2021/07/10 02:42:19;;;;;;;7.40;4.30;;;;;;;12.63;51.79;95834.25;5012073;28;20094;-82
2021/07/10 02:44:44;;;;;;;6.18;4.43;;;;;;;12.59;51.35;95832.97;5012222;28;20090;-82
2021/07/10 02:47:09;;;;;;;6.65;4.18;;;;;;;12.53;51.60;95830.03;5012131;28;20118;-82
2021/07/10 02:49:35;;;;;;;5.47;4.55;;;;;;;12.49;51.76;95827.91;5012485;28;20318;-82
2021/07/10 02:52:00;;;;;;;5.90;5.00;;;;;;;12.41;52.18;95824.31;5011599;28;20102;-82
2021/07/10 02:54:26;;;;;;;5.05;4.55;;;;;;;12.38;51.76;95818.53;5010930;28;20106;-82
2021/07/10 02:56:51;;;;;;;4.95;4.00;;;;;;;12.38;51.81;95818.53;5008069;28;20548;-82
2021/07/10 02:59:17;;;;;;;6.15;4.38;;;;;;;12.39;51.89;95817.50;5006545;28;20114;-82
2021/07/10 03:01:42;;;;;;;6.60;4.47;;;;;;;12.35;51.93;95825.06;5010887;28;20544;-82
2021/07/10 03:04:07;;;;;;;5.13;4.60;;;;;;;12.32;51.94;95811.25;5012148;28;20543;-82
2021/07/10 03:06:33;;;;;;;13.27;5.63;;;;;;;12.11;51.45;95810.94;5004419;28;20094;-82
2021/07/10 03:08:58;;;;;;;5.30;4.75;;;;;;;12.11;52.60;95810.94;5004545;28;20087;-82
2021/07/10 03:11:24;;;;;;;4.57;4.18;;;;;;;12.14;52.92;95818.59;5010524;28;20110;-82
2021/07/10 03:13:49;;;;;;;5.30;4.43;;;;;;;12.17;53.06;95803.25;5012449;28;20086;-82
2021/07/10 03:16:15;;;;;;;5.68;4.20;;;;;;;12.21;52.37;95817.88;5013349;28;20090;-82
2021/07/10 03:18:40;;;;;;;6.13;4.50;;;;;;;12.25;52.09;95811.16;5010520;28;20117;-82
2021/07/10 03:21:05;;;;;;;6.40;4.70;;;;;;;12.23;52.49;95810.50;5012712;28;20085;-82
2021/07/10 03:23:31;;;;;;;6.22;4.15;;;;;;;12.23;52.74;95808.66;5010740;28;20113;-82
2021/07/10 03:25:56;;;;;;;7.75;4.32;;;;;;;12.27;52.03;95807.28;4992823;28;20086;-82
2021/07/10 03:28:22;;;;;;;5.55;3.97;;;;;;;12.26;52.19;95810.13;5010022;28;20208;-82
2021/07/10 03:30:53;;;;;;;5.25;4.07;;;;;;;12.26;52.19;95804.81;4984395;28;20471;-82
2021/07/10 03:33:20;;;;;;;4.95;3.85;;;;;;;12.27;51.57;95806.44;5007986;28;20090;-82
2021/07/10 03:35:45;;;;;;;5.50;3.92;;;;;;;12.24;51.63;95812.19;4990858;28;20210;-81
2021/07/10 03:38:11;;;;;;;4.40;3.67;;;;;;;12.20;52.18;95802.88;5006756;28;20102;-81
2021/07/10 03:40:36;;;;;;;5.55;3.58;;;;;;;12.20;52.06;95814.38;5003480;28;20113;-81
2021/07/10 03:43:04;;;;;;;4.05;3.65;;;;;;;12.18;51.72;95811.06;5011741;28;20114;-81
2021/07/10 03:45:29;;;;;;;4.30;3.63;;;;;;;12.15;51.70;95806.94;5010325;28;20544;-81
2021/07/10 03:47:55;;;;;;;4.95;3.88;;;;;;;12.15;52.27;95812.28;4992458;28;20168;-81
2021/07/10 03:50:20;;;;;;;4.70;3.90;;;;;;;12.15;52.37;95804.28;4998890;28;20098;-81
2021/07/10 03:52:46;;;;;;;3.75;3.42;;;;;;;12.19;52.05;95814.56;4994192;28;20109;-82
2021/07/10 03:55:12;;;;;;;3.80;3.40;;;;;;;12.21;51.52;95807.19;5010688;28;20160;-82
2021/07/10 03:57:38;;;;;;;6.40;3.53;;;;;;;12.19;51.58;95815.38;5003022;28;20082;-82
2021/07/10 04:00:15;;;;;;;3.90;3.50;;;;;;;12.14;51.03;95815.13;5012373;28;20109;-82
2021/07/10 04:02:41;;;;;;;4.78;3.30;;;;;;;12.24;51.10;95810.31;4978943;28;20172;-82
2021/07/10 04:05:07;;;;;;;5.50;3.83;;;;;;;12.23;51.78;95818.50;5011217;28;20507;-83
2021/07/10 04:07:33;;;;;;;4.78;3.53;;;;;;;12.25;51.79;95804.00;4994564;28;20182;-83
2021/07/10 04:10:00;;;;;;;8.80;3.72;;;;;;;12.30;51.57;95807.94;5009849;28;20075;-82
2021/07/10 04:12:26;;;;;;;6.93;4.18;;;;;;;12.30;51.59;95810.63;4993206;28;20115;-82
2021/07/10 04:14:51;;;;;;;4.82;3.95;;;;;;;12.32;51.71;95806.75;4974959;28;20104;-82
2021/07/10 04:17:16;;;;;;;4.55;3.53;;;;;;;12.41;51.60;95807.50;5000325;28;20091;-82
2021/07/10 04:19:42;;;;;;;5.50;4.03;;;;;;;12.46;50.91;95804.25;5012939;28;20110;-83
2021/07/10 04:22:07;;;;;;;4.03;3.60;;;;;;;12.50;51.13;95806.38;4996673;28;20098;-83
2021/07/10 04:24:33;;;;;;;5.38;4.00;;;;;;;12.54;51.35;95807.66;4996823;28;20483;-83
2021/07/10 04:26:58;;;;;;;4.85;3.42;;;;;;;12.59;51.14;95801.75;5013886;28;20603;-83
2021/07/10 04:29:24;;;;;;;5.65;4.05;;;;;;;12.67;51.23;95800.81;4987967;28;20173;-82
2021/07/10 04:31:49;;;;;;;4.68;4.10;;;;;;;12.75;50.85;95795.34;4965182;28;20102;-82
2021/07/10 04:34:14;;;;;;;5.60;4.05;;;;;;;12.77;51.05;95801.34;4994219;28;20117;-82
2021/07/10 04:36:40;;;;;;;8.02;6.28;;;;;;;12.81;51.04;95801.78;5011293;28;20090;-82
2021/07/10 04:39:05;;;;;;;5.47;4.07;;;;;;;12.84;51.14;95797.91;5003454;28;20099;-82
2021/07/10 04:41:31;;;;;;;6.18;4.43;;;;;;;12.91;50.92;95796.16;5005641;28;20554;-82
2021/07/10 04:43:56;;;;;;;5.93;4.38;;;;;;;12.96;50.92;95792.91;5011856;28;20098;-82
2021/07/10 04:46:22;;;;;;;7.80;4.22;;;;;;;13.03;50.66;95796.53;5010205;28;20110;-83
2021/07/10 04:48:47;;;;;;;6.10;4.45;;;;;;;13.09;50.56;95795.75;4994985;28;20148;-83
2021/07/10 04:51:12;;;;;;;4.35;3.95;;;;;;;13.16;50.58;95791.31;5010172;28;20114;-83
2021/07/10 04:53:38;;;;;;;4.05;3.65;;;;;;;13.22;50.08;95789.72;4986331;28;20126;-83
2021/07/10 04:56:04;;;;;;;4.55;4.10;;;;;;;13.31;50.16;95787.75;5006822;28;20113;-83
2021/07/10 04:58:29;;;;;;;6.32;3.72;;;;;;;13.36;50.03;95792.53;4994621;28;20099;-83
2021/07/10 05:00:55;;;;;;;8.30;4.03;;;;;;;13.46;49.91;95790.34;4992762;28;20078;-83
2021/07/10 05:03:20;;;;;;;7.85;4.28;;;;;;;13.60;49.48;95787.81;5010600;28;20113;-83
2021/07/10 05:05:45;;;;;;;5.38;4.75;;;;;;;13.68;49.35;95796.53;4979090;28;20075;-83
2021/07/10 05:08:11;;;;;;;7.18;4.60;;;;;;;13.81;49.18;95792.28;4989958;28;20118;-82
2021/07/10 05:10:37;;;;;;;7.07;4.50;;;;;;;13.96;48.84;95789.53;4999776;28;20106;-82
2021/07/10 05:13:03;;;;;;;6.28;4.25;;;;;;;14.11;48.57;95794.78;4964232;28;20393;-82
2021/07/10 05:15:28;;;;;;;5.45;4.28;;;;;;;14.28;48.36;95789.13;4988947;28;20120;-83
2021/07/10 05:17:54;;;;;;;6.03;4.32;;;;;;;14.45;48.68;95779.72;5002653;28;20114;-83
2021/07/10 05:20:19;;;;;;;5.35;4.22;;;;;;;14.64;48.45;95781.84;5006798;28;20087;-83
2021/07/10 05:22:45;;;;;;;5.93;4.45;;;;;;;14.82;48.69;95784.03;5005908;28;20129;-83
2021/07/10 05:25:10;;;;;;;8.43;5.03;;;;;;;15.05;48.17;95788.19;4981437;28;20130;-83
2021/07/10 05:27:36;;;;;;;5.82;4.68;;;;;;;15.28;47.97;95781.66;4990109;28;20110;-83
2021/07/10 05:30:14;;;;;;;6.80;4.63;;;;;;;15.50;47.63;95784.97;5000237;28;20600;-83
2021/07/10 05:32:40;;;;;;;5.75;4.90;;;;;;;15.75;47.70;95781.72;4987142;28;20093;-83
2021/07/10 05:35:06;;;;;;;6.55;4.88;;;;;;;15.95;47.06;95787.06;4997870;28;20106;-83
2021/07/10 05:37:32;;;;;;;7.97;4.63;;;;;;;16.22;47.06;95787.00;5000355;28;20140;-83
2021/07/10 05:39:57;;;;;;;6.18;5.32;;;;;;;16.45;46.80;95779.56;4996498;28;20205;-83
2021/07/10 05:42:23;;;;;;;6.88;5.45;;;;;;;16.60;46.48;95782.81;4992092;28;20464;-83
2021/07/10 05:44:48;;;;;;;6.82;5.10;;;;;;;16.74;45.67;95778.22;4999316;28;20082;-83
2021/07/10 05:47:14;;;;;;;6.72;5.75;;;;;;;16.89;45.90;95787.84;5003400;28;20106;-83
2021/07/10 05:49:39;;;;;;;8.10;5.10;;;;;;;16.95;44.62;95783.47;4975805;28;20112;-83
2021/07/10 05:52:05;;;;;;;9.65;6.55;;;;;;;17.03;45.40;95775.16;5011029;28;20090;-83
2021/07/10 05:54:30;;;;;;;6.72;5.55;;;;;;;17.09;45.48;95784.22;4984334;28;20605;-83
2021/07/10 05:56:56;;;;;;;9.63;6.35;;;;;;;17.20;45.99;95780.06;4982377;28;20183;-83
2021/07/10 05:59:21;;;;;;;10.80;7.82;;;;;;;17.25;45.46;95783.75;5014033;28;20103;-83
2021/07/10 06:01:46;;;;;;;10.80;7.10;;;;;;;17.24;45.46;95779.41;4999919;28;20079;-83
2021/07/10 06:04:12;;;;;;;8.68;6.47;;;;;;;17.48;44.93;95778.84;5020562;28;20095;-83
2021/07/10 06:06:37;;;;;;;12.48;6.82;;;;;;;17.58;44.98;95786.44;5000473;28;20103;-83
2021/07/10 06:09:03;;;;;;;10.00;7.22;;;;;;;17.67;44.11;95790.50;5002988;28;20094;-82
2021/07/10 06:11:28;;;;;;;9.25;7.90;;;;;;;16.92;44.76;95784.72;4984208;28;20110;-83
2021/07/10 06:13:54;;;;;;;7.88;6.45;;;;;;;17.68;43.90;95784.09;5020865;28;20083;-83
2021/07/10 06:16:19;;;;;;;9.82;6.95;;;;;;;18.25;42.47;95779.66;5008693;28;20087;-83
2021/07/10 06:18:45;;;;;;;8.13;6.40;;;;;;;18.09;41.93;95779.19;5013035;28;20515;-82
2021/07/10 06:21:10;;;;;;;10.90;7.65;;;;;;;18.39;42.44;95783.03;5004819;28;20082;-83
2021/07/10 06:23:35;;;;;;;9.45;7.03;;;;;;;18.34;42.31;95786.38;4976758;28;20107;-83
2021/07/10 06:26:01;;;;;;;9.93;6.20;;;;;;;18.68;41.49;95772.56;5000540;28;20082;-83
2021/07/10 06:28:26;;;;;;;7.75;6.20;;;;;;;18.92;41.64;95778.06;5011388;28;20640;-83
2021/07/10 06:30:52;;;;;;;9.38;7.57;;;;;;;18.93;41.40;95779.69;4983794;28;20110;-83
2021/07/10 06:33:17;;;;;;;7.80;6.03;;;;;;;18.68;40.93;95773.38;5009985;28;20074;-83
2021/07/10 06:35:42;;;;;;;11.50;9.18;;;;;;;19.00;40.64;95775.03;5009330;28;20702;-83
2021/07/10 06:38:08;;;;;;;14.00;8.50;;;;;;;18.64;41.07;95779.44;4993488;28;20642;-83
2021/07/10 06:40:33;;;;;;;8.98;7.20;;;;;;;18.58;41.64;95777.66;5004635;28;20325;-84
2021/07/10 06:42:59;;;;;;;11.07;8.25;;;;;;;18.82;41.48;95775.91;5010699;28;20109;-83
2021/07/10 06:45:24;;;;;;;10.15;7.22;;;;;;;19.16;40.84;95780.84;5006158;28;20566;-83
2021/07/10 06:47:50;;;;;;;11.50;8.88;;;;;;;19.41;39.01;95775.31;4969144;28;20121;-82
2021/07/10 06:50:18;;;;;;;10.52;7.35;;;;;;;18.90;40.86;95774.78;4999748;28;20106;-83
2021/07/10 06:52:44;;;;;;;10.05;7.20;;;;;;;19.33;40.26;95781.06;5002672;28;20105;-82
2021/07/10 06:55:10;;;;;;;11.90;7.15;;;;;;;19.14;40.42;95781.06;4960793;28;20138;-83
2021/07/10 06:57:36;;;;;;;6.05;5.35;;;;;;;19.67;39.55;95783.22;4991426;28;20160;-83
2021/07/10 07:00:03;;;;;;;7.35;5.90;;;;;;;20.00;38.34;95772.94;4975378;28;20118;-83
2021/07/10 07:02:29;;;;;;;7.88;6.57;;;;;;;20.22;38.69;95776.72;4977468;28;20234;-83
2021/07/10 07:04:54;;;;;;;8.10;6.50;;;;;;;20.25;37.87;95780.00;5001973;28;20083;-83
2021/07/10 07:07:20;;;;;;;9.10;6.43;;;;;;;20.29;36.99;95773.88;4983896;28;20103;-83
2021/07/10 07:09:45;;;;;;;6.80;5.55;;;;;;;20.39;37.37;95775.97;4984198;28;20075;-83
2021/07/10 07:12:10;;;;;;;8.60;5.13;;;;;;;20.70;36.46;95767.72;4998637;28;20113;-83
2021/07/10 07:14:36;;;;;;;6.57;5.25;;;;;;;20.36;36.97;95773.75;4988545;28;20098;-84
2021/07/10 07:17:03;;;;;;;7.70;5.22;;;;;;;20.77;36.93;95771.09;5002661;28;20576;-83
2021/07/10 07:19:31;;;;;;;9.73;5.93;;;;;;;20.83;37.32;95762.03;4978084;28;20098;-83
2021/07/10 07:21:57;;;;;;;9.68;7.68;;;;;;;20.72;36.38;95766.44;4994606;28;20097;-83
2021/07/10 07:24:23;;;;;;;12.13;7.65;;;;;;;21.06;35.65;95764.88;4986229;28;20558;-83
2021/07/10 07:26:48;;;;;;;9.38;7.97;;;;;;;20.82;36.96;95764.97;4984024;28;20594;-83
2021/07/10 07:29:14;;;;;;;12.07;8.32;;;;;;;20.30;37.07;95767.44;4976111;28;20133;-83
2021/07/10 07:31:40;;;;;;;8.80;7.32;;;;;;;20.56;38.09;95767.16;4974545;28;20105;-83
2021/07/10 07:34:05;;;;;;;9.68;7.15;;;;;;;21.07;36.82;95761.13;4986346;28;20672;-83
2021/07/10 07:36:31;;;;;;;15.18;11.85;;;;;;;21.33;36.50;95758.91;4980124;28;20095;-83
2021/07/10 07:38:56;;;;;;;9.00;6.95;;;;;;;21.32;35.85;95758.09;4984274;28;20102;-83
2021/07/10 07:41:22;;;;;;;12.35;8.00;;;;;;;20.97;37.47;95756.34;4970343;28;20468;-84
2021/07/10 07:43:47;;;;;;;8.30;6.82;;;;;;;21.45;36.73;95753.41;4972610;28;20619;-84
2021/07/10 07:46:14;;;;;;;12.48;7.57;;;;;;;21.67;35.18;95756.22;5019419;28;20103;-83
2021/07/10 07:48:43;;;;;;;33.08;20.27;;;;;;;21.49;36.93;95757.28;5009299;28;20075;-84
2021/07/10 07:51:11;;;;;;;10.20;6.18;;;;;;;21.22;37.21;95747.03;5015294;28;20114;-84
2021/07/10 07:53:37;;;;;;;8.02;6.50;;;;;;;21.54;36.47;95753.81;5007952;28;20106;-83
2021/07/10 07:56:03;;;;;;;14.60;7.85;;;;;;;20.93;38.26;95750.59;4982741;28;20579;-84
2021/07/10 07:58:29;;;;;;;14.30;6.90;;;;;;;21.24;37.31;95744.91;5001570;28;20106;-83
2021/07/10 08:00:55;;;;;;;8.05;5.25;;;;;;;21.57;35.53;95754.16;5020667;28;20160;-83
2021/07/10 08:03:20;;;;;;;11.90;8.77;;;;;;;22.00;35.54;95748.34;4998297;28;20464;-83
2021/07/10 08:05:46;;;;;;;15.02;10.13;;;;;;;20.77;37.91;95746.75;4978621;28;20098;-83
2021/07/10 08:08:13;;;;;;;14.50;9.15;;;;;;;21.31;37.06;95750.22;4956813;28;20467;-83
2021/07/10 08:10:38;;;;;;;9.00;6.60;;;;;;;21.88;36.61;95741.09;4977944;28;20590;-83
2021/07/10 08:13:03;;;;;;;9.40;6.70;;;;;;;19.52;39.90;95754.81;4988055;28;20223;-83
2021/07/10 08:15:29;;;;;;;7.25;5.82;;;;;;;21.15;37.04;95751.78;4967047;28;20103;-82
2021/07/10 08:17:54;;;;;;;9.30;6.30;;;;;;;21.22;36.86;95747.03;5013929;28;20138;-83
2021/07/10 08:20:21;;;;;;;8.02;5.35;;;;;;;21.07;36.54;95756.53;4991056;28;20097;-82
2021/07/10 08:22:47;;;;;;;10.20;6.65;;;;;;;21.61;35.61;95743.66;4947106;28;20099;-83
2021/07/10 08:25:13;;;;;;;7.88;6.05;;;;;;;22.07;34.91;95745.44;5003979;28;20098;-83
2021/07/10 08:27:42;;;;;;;7.33;4.83;;;;;;;21.57;35.68;95747.91;5004713;28;20102;-83
2021/07/10 08:30:08;;;;;;;6.32;4.55;;;;;;;22.52;34.50;95740.88;4990165;28;20126;-82
2021/07/10 08:32:33;;;;;;;10.43;6.80;;;;;;;22.36;34.30;95735.28;4999205;28;20079;-82
2021/07/10 08:34:59;;;;;;;8.57;5.17;;;;;;;22.95;33.51;95740.31;5016140;28;20094;-82
2021/07/10 08:37:24;;;;;;;4.53;3.90;;;;;;;23.28;30.71;95733.06;5004889;28;20074;-82
2021/07/10 08:39:50;;;;;;;5.65;3.85;;;;;;;23.21;32.52;95735.19;5009369;28;20099;-83
2021/07/10 08:42:16;;;;;;;8.80;6.20;;;;;;;22.69;31.53;95730.00;4974079;28;20099;-82
2021/07/10 08:44:41;;;;;;;6.50;4.20;;;;;;;22.97;32.32;95741.69;4990997;28;20097;-82
2021/07/10 08:47:13;;;;;;;7.03;5.30;;;;;;;22.92;33.39;95731.59;4992779;28;20657;-83
2021/07/10 08:49:40;;;;;;;9.43;5.15;;;;;;;23.34;32.64;95729.31;5002976;28;20083;-82
2021/07/10 08:52:05;;;;;;;6.70;4.23;;;;;;;23.40;30.58;95733.72;4958126;28;20115;-82
2021/07/10 08:54:31;;;;;;;10.00;4.50;;;;;;;22.66;31.86;95734.03;4983098;28;20353;-82
2021/07/10 08:56:58;;;;;;;6.15;4.60;;;;;;;22.28;32.96;95733.84;5003761;28;20111;-81
2021/07/10 08:59:24;;;;;;;17.30;9.82;;;;;;;22.48;33.74;95734.34;4981783;28;20122;-82
2021/07/10 09:01:53;;;;;;;10.95;7.90;;;;;;;22.84;32.79;95728.53;5007946;28;20087;-82
2021/07/10 09:04:23;;;;;;;8.05;4.47;;;;;;;23.53;31.93;95737.88;5006012;28;20079;-82
2021/07/10 09:06:48;;;;;;;7.55;4.70;;;;;;;23.19;32.72;95730.00;5009520;28;20232;-83
2021/07/10 09:09:14;;;;;;;13.50;6.07;;;;;;;23.40;31.87;95731.00;4971575;28;20863;-83
2021/07/10 09:11:39;;;;;;;6.63;3.60;;;;;;;24.02;31.51;95730.66;4975789;28;20090;-83
2021/07/10 09:14:05;;;;;;;7.47;4.43;;;;;;;23.69;30.91;95736.13;5009675;28;20550;-83
2021/07/10 09:16:32;;;;;;;8.47;4.73;;;;;;;22.87;31.49;95730.72;4988867;28;20114;-85
2021/07/10 09:18:57;;;;;;;;;;;;;;;23.10;31.48;95729.63;4993768;28;20113;-84
2021/07/10 09:21:48;;;;;;;8.87;3.80;;;;;;;23.37;30.84;95725.25;5001299;28;19966;-84
2021/07/10 09:26:53;;;;;;;4.68;3.42;;;;;;;23.59;30.20;95722.44;5831434;22;20725;-82
2021/07/10 09:29:29;;;;;;;6.65;3.70;;;;;;;23.50;30.51;95715.88;4999282;28;20110;-83
2021/07/10 09:31:58;;;;;;;10.75;8.35;;;;;;;23.27;30.66;95718.69;4946635;28;20154;-83
2021/07/10 09:34:29;;;;;;;4.53;3.60;;;;;;;22.86;31.15;95718.22;4997243;28;20090;-82
2021/07/10 09:36:54;;;;;;;5.88;4.00;;;;;;;22.23;32.48;95716.69;4939756;28;20118;-83
2021/07/10 09:39:21;;;;;;;5.00;3.60;;;;;;;23.00;31.69;95713.22;4957952;28;20225;-83
2021/07/10 09:41:47;;;;;;;18.10;11.63;;;;;;;22.98;32.36;95705.34;4944896;28;20087;-83
2021/07/10 09:44:13;;;;;;;14.73;8.95;;;;;;;23.36;31.37;95704.63;4957980;28;20088;-83
2021/07/10 09:46:39;;;;;;;4.72;3.63;;;;;;;21.32;33.75;95720.19;4939108;28;20100;-83
2021/07/10 09:49:30;;;;;;;6.38;4.05;;;;;;;21.15;33.82;95716.59;4960698;28;20076;-83
2021/07/10 09:52:15;;;;;;;10.13;5.63;;;;;;;22.07;33.08;95700.22;4957220;28;20111;-83
2021/07/10 09:54:44;;;;;;;18.88;13.90;;;;;;;22.36;32.32;95704.59;4941005;28;20170;-83
2021/07/10 09:57:16;;;;;;;21.70;15.57;;;;;;;21.49;32.89;95697.72;4976617;28;20198;-83
2021/07/10 09:59:50;;;;;;;5.75;4.43;;;;;;;22.84;31.50;95695.97;4925474;28;20246;-83
2021/07/10 10:02:17;;;;;;;6.82;4.10;;;;;;;22.81;31.98;95693.78;4919882;29;20051;-83
2021/07/10 10:04:43;;;;;;;7.30;5.22;;;;;;;23.32;31.28;95696.19;4940847;28;20039;-83
2021/07/10 10:07:12;;;;;;;6.60;4.10;;;;;;;23.31;31.22;95691.81;4948431;28;20081;-83
2021/07/10 10:09:38;;;;;;;4.00;3.20;;;;;;;24.48;28.43;95691.22;4925138;29;20076;-84
2021/07/10 10:12:09;;;;;;;5.07;3.37;;;;;;;24.68;28.62;95695.09;4966402;28;20133;-83
2021/07/10 10:14:49;;;;;;;5.82;3.25;;;;;;;24.23;28.38;95695.44;4950739;28;20199;-83
2021/07/10 10:17:17;;;;;;;5.25;3.40;;;;;;;24.29;29.13;95693.56;4911864;28;20026;-83
2021/07/10 10:19:43;;;;;;;4.78;3.80;;;;;;;24.04;30.23;95685.00;4954575;28;20563;-84
2021/07/10 10:22:08;;;;;;;5.60;4.13;;;;;;;23.81;30.07;95683.50;4965842;28;20123;-84
2021/07/10 10:24:35;;;;;;;4.67;3.23;;;;;;;23.93;29.76;95681.41;4952040;28;20088;-83
2021/07/10 10:27:01;;;;;;;6.05;4.25;;;;;;;23.99;30.09;95686.91;4959665;28;20119;-85
2021/07/10 10:29:27;;;;;;;5.50;4.03;;;;;;;23.42;30.30;95688.09;4971502;28;20049;-85
2021/07/10 10:31:52;;;;;;;5.65;3.20;;;;;;;24.01;30.15;95688.25;4943759;28;20523;-84
2021/07/10 10:34:18;;;;;;;7.37;4.20;;;;;;;23.97;29.67;95686.31;4932670;29;20035;-84
2021/07/10 10:36:45;;;;;;;4.53;3.60;;;;;;;23.49;30.14;95687.06;4947319;29;20126;-84
2021/07/10 10:39:16;;;;;;;6.72;3.80;;;;;;;22.33;32.40;95678.03;4951005;28;20644;-84
2021/07/10 10:41:44;;;;;;;5.47;3.50;;;;;;;22.75;31.98;95673.91;4945863;29;20087;-84
2021/07/10 10:44:09;;;;;;;6.65;5.32;;;;;;;22.23;33.69;95671.38;4947929;29;20250;-84
2021/07/10 10:46:52;;;;;;;5.83;4.47;;;;;;;23.44;31.87;95674.25;4929338;29;20035;-84
2021/07/10 10:49:43;;;;;;;5.55;4.40;;;;;;;23.75;30.46;95673.69;4949853;29;20480;-84
2021/07/10 10:52:16;;;;;;;7.88;4.57;;;;;;;22.12;33.45;95677.75;4948866;28;20058;-84
2021/07/10 10:54:51;;;;;;;15.27;10.82;;;;;;;22.87;32.07;95681.88;4948562;29;20153;-84
2021/07/10 10:57:18;;;;;;;5.85;3.80;;;;;;;22.41;32.77;95672.16;4927592;29;20505;-84
2021/07/10 10:59:43;;;;;;;6.55;3.72;;;;;;;23.61;30.45;95671.41;4949107;28;20062;-84
2021/07/10 11:02:32;;;;;;;6.53;3.60;;;;;;;22.34;32.28;95664.22;4945865;29;20800;-84
2021/07/10 11:04:58;;;;;;;4.97;3.42;;;;;;;23.23;30.89;95673.28;4947930;29;20079;-84
2021/07/10 11:07:24;;;;;;;6.47;5.47;;;;;;;22.56;32.38;95671.53;4933426;29;20158;-84
2021/07/10 11:10:12;;;;;;;8.02;5.50;;;;;;;22.88;32.19;95668.06;4949475;28;20545;-85
2021/07/10 11:13:08;;;;;;;8.52;4.70;;;;;;;22.43;32.49;95671.91;4941388;29;20079;-84
2021/07/10 11:15:42;;;;;;;8.07;5.85;;;;;;;20.94;34.46;95670.25;4949170;28;20116;-83
2021/07/10 11:18:07;;;;;;;5.82;4.38;;;;;;;21.43;33.55;95666.19;4933212;29;20453;-84
2021/07/10 11:20:45;;;;;;;16.53;5.47;;;;;;;22.36;32.84;95655.81;4952433;29;20084;-83
2021/07/10 11:23:23;;;;;;;14.15;5.45;;;;;;;21.54;34.12;95659.84;4953057;28;20103;-85
2021/07/10 11:25:48;;;;;;;6.78;4.20;;;;;;;21.90;33.15;95656.84;4948866;29;20497;-85
2021/07/10 11:28:14;;;;;;;4.03;3.60;;;;;;;22.14;32.90;95653.94;4948959;28;20210;-85
2021/07/10 11:30:46;;;;;;;6.30;3.70;;;;;;;22.00;33.46;95650.78;4946875;28;20388;-85
2021/07/10 11:33:14;;;;;;;16.15;6.32;;;;;;;21.53;33.81;95650.09;4927995;29;20160;-84